sensor_id;sensor_type;location;lat;lon;timestamp;pressure;altitude;pressure_sealevel;temperature;humidity
71601;BME280;59446;52.192;4.628;2022-08-02T00:02:16;101944.38;;;23.46;46.86
71601;BME280;59446;52.192;4.628;2022-08-02T00:04:41;101937.25;;;23.47;46.85
71601;BME280;59446;52.192;4.628;2022-08-02T00:07:07;101926.59;;;23.47;46.78
71601;BME280;59446;52.192;4.628;2022-08-02T00:09:32;101934.69;;;23.45;46.73
71601;BME280;59446;52.192;4.628;2022-08-02T00:11:58;101922.34;;;23.44;46.89
71601;BME280;59446;52.192;4.628;2022-08-02T00:14:23;101930.31;;;23.44;46.52
71601;BME280;59446;52.192;4.628;2022-08-02T00:16:48;101932.13;;;23.44;46.82
71601;BME280;59446;52.192;4.628;2022-08-02T00:19:14;101919.78;;;23.43;46.82
71601;BME280;59446;52.192;4.628;2022-08-02T00:21:39;101915.44;;;23.42;46.64
71601;BME280;59446;52.192;4.628;2022-08-02T00:24:05;101915.53;;;23.40;46.76
71601;BME280;59446;52.192;4.628;2022-08-02T00:26:31;101918.38;;;23.37;46.77
71601;BME280;59446;52.192;4.628;2022-08-02T00:28:56;101912.22;;;23.37;46.55
71601;BME280;59446;52.192;4.628;2022-08-02T00:31:22;101913.94;;;23.38;46.46
71601;BME280;59446;52.192;4.628;2022-08-02T00:33:47;101919.41;;;23.34;46.66
71601;BME280;59446;52.192;4.628;2022-08-02T00:36:13;101914.09;;;23.34;46.71
71601;BME280;59446;52.192;4.628;2022-08-02T00:38:39;101902.72;;;23.32;46.80
71601;BME280;59446;52.192;4.628;2022-08-02T00:41:10;101904.63;;;23.30;46.49
71601;BME280;59446;52.192;4.628;2022-08-02T00:43:36;101908.13;;;23.31;46.49
71601;BME280;59446;52.192;4.628;2022-08-02T00:46:01;101897.59;;;23.29;46.73
71601;BME280;59446;52.192;4.628;2022-08-02T00:48:27;101909.19;;;23.28;46.80
71601;BME280;59446;52.192;4.628;2022-08-02T00:50:52;101904.81;;;23.27;46.58
71601;BME280;59446;52.192;4.628;2022-08-02T00:53:17;101903.88;;;23.28;46.81
71601;BME280;59446;52.192;4.628;2022-08-02T00:55:43;101890.78;;;23.25;46.60
71601;BME280;59446;52.192;4.628;2022-08-02T00:58:08;101889.09;;;23.24;46.57
71601;BME280;59446;52.192;4.628;2022-08-02T01:00:34;101888.22;;;23.24;46.69
71601;BME280;59446;52.192;4.628;2022-08-02T01:02:59;101901.63;;;23.22;46.72
71601;BME280;59446;52.192;4.628;2022-08-02T01:05:24;101899.91;;;23.21;46.63
71601;BME280;59446;52.192;4.628;2022-08-02T01:07:50;101892.91;;;23.20;46.52
71601;BME280;59446;52.192;4.628;2022-08-02T01:10:16;101890.34;;;23.19;46.38
71601;BME280;59446;52.192;4.628;2022-08-02T01:12:41;101881.63;;;23.17;46.51
71601;BME280;59446;52.192;4.628;2022-08-02T01:15:08;101887.88;;;23.16;46.48
71601;BME280;59446;52.192;4.628;2022-08-02T01:17:46;101882.66;;;23.14;46.53
71601;BME280;59446;52.192;4.628;2022-08-02T01:31:58;101879.34;;;23.11;46.36
71601;BME280;59446;52.192;4.628;2022-08-02T01:37:15;101882.28;;;23.06;46.10
71601;BME280;59446;52.192;4.628;2022-08-02T01:39:43;101879.63;;;23.06;46.41
71601;BME280;59446;52.192;4.628;2022-08-02T01:42:10;101883.25;;;23.05;46.42
71601;BME280;59446;52.192;4.628;2022-08-02T01:44:39;101892.28;;;23.02;46.39
71601;BME280;59446;52.192;4.628;2022-08-02T01:47:09;101886.97;;;23.02;46.43
71601;BME280;59446;52.192;4.628;2022-08-02T01:49:38;101873.69;;;23.02;46.39
71601;BME280;59446;52.192;4.628;2022-08-02T01:52:07;101879.09;;;23.01;46.37
71601;BME280;59446;52.192;4.628;2022-08-02T01:54:53;101877.38;;;23.00;46.06
71601;BME280;59446;52.192;4.628;2022-08-02T01:57:22;101881.16;;;22.96;46.52
71601;BME280;59446;52.192;4.628;2022-08-02T01:59:49;101874.91;;;22.97;46.21
71601;BME280;59446;52.192;4.628;2022-08-02T02:02:15;101878.50;;;22.96;46.36
71601;BME280;59446;52.192;4.628;2022-08-02T02:04:44;101876.69;;;22.96;46.02
71601;BME280;59446;52.192;4.628;2022-08-02T02:07:12;101880.41;;;22.94;46.01
71601;BME280;59446;52.192;4.628;2022-08-02T02:09:38;101876.91;;;22.93;45.98
71601;BME280;59446;52.192;4.628;2022-08-02T02:12:05;101875.09;;;22.94;45.83
71601;BME280;59446;52.192;4.628;2022-08-02T02:14:32;101854.78;;;22.93;45.74
71601;BME280;59446;52.192;4.628;2022-08-02T02:16:59;101857.44;;;22.93;45.71
71601;BME280;59446;52.192;4.628;2022-08-02T02:19:27;101854.91;;;22.91;45.70
71601;BME280;59446;52.192;4.628;2022-08-02T02:21:53;101860.09;;;22.93;45.88
71601;BME280;59446;52.192;4.628;2022-08-02T02:24:19;101861.16;;;22.90;45.60
71601;BME280;59446;52.192;4.628;2022-08-02T02:26:45;101861.22;;;22.89;45.97
71601;BME280;59446;52.192;4.628;2022-08-02T02:29:13;101870.16;;;22.88;45.72
71601;BME280;59446;52.192;4.628;2022-08-02T02:31:41;101864.09;;;22.86;45.87
71601;BME280;59446;52.192;4.628;2022-08-02T02:34:10;101857.91;;;22.85;45.59
71601;BME280;59446;52.192;4.628;2022-08-02T02:36:39;101857.06;;;22.85;45.57
71601;BME280;59446;52.192;4.628;2022-08-02T02:39:06;101856.22;;;22.84;45.89
71601;BME280;59446;52.192;4.628;2022-08-02T02:41:36;101864.28;;;22.83;45.64
71601;BME280;59446;52.192;4.628;2022-08-02T02:44:02;101866.09;;;22.82;45.45
71601;BME280;59446;52.192;4.628;2022-08-02T02:46:30;101859.94;;;22.82;45.34
71601;BME280;59446;52.192;4.628;2022-08-02T02:48:57;101839.63;;;22.81;45.50
71601;BME280;59446;52.192;4.628;2022-08-02T02:51:23;101845.78;;;22.81;45.23
71601;BME280;59446;52.192;4.628;2022-08-02T02:53:50;101846.75;;;22.80;45.44
71601;BME280;59446;52.192;4.628;2022-08-02T02:56:17;101847.69;;;22.79;45.74
71601;BME280;59446;52.192;4.628;2022-08-02T02:58:44;101845.16;;;22.78;45.36
71601;BME280;59446;52.192;4.628;2022-08-02T03:01:10;101846.94;;;22.77;45.36
71601;BME280;59446;52.192;4.628;2022-08-02T03:03:56;101854.16;;;22.75;45.31
71601;BME280;59446;52.192;4.628;2022-08-02T03:06:24;101846.28;;;22.73;45.41
71601;BME280;59446;52.192;4.628;2022-08-02T03:08:49;101847.25;;;22.72;45.56
71601;BME280;59446;52.192;4.628;2022-08-02T03:11:16;101836.72;;;22.71;45.60
71601;BME280;59446;52.192;4.628;2022-08-02T03:13:41;101824.28;;;22.71;45.71
71601;BME280;59446;52.192;4.628;2022-08-02T03:16:07;101823.53;;;22.69;45.62
71601;BME280;59446;52.192;4.628;2022-08-02T03:18:35;101823.53;;;22.69;45.63
71601;BME280;59446;52.192;4.628;2022-08-02T03:21:02;101828.97;;;22.68;45.36
71601;BME280;59446;52.192;4.628;2022-08-02T03:23:28;101823.66;;;22.68;45.90
71601;BME280;59446;52.192;4.628;2022-08-02T03:25:54;101814.81;;;22.67;45.52
71601;BME280;59446;52.192;4.628;2022-08-02T03:28:19;101813.09;;;22.66;45.76
71601;BME280;59446;52.192;4.628;2022-08-02T03:30:45;101811.50;;;22.64;46.00
71601;BME280;59446;52.192;4.628;2022-08-02T03:33:10;101807.97;;;22.63;45.77
71601;BME280;59446;52.192;4.628;2022-08-02T03:35:37;101814.25;;;22.62;45.78
71601;BME280;59446;52.192;4.628;2022-08-02T03:38:04;101816.03;;;22.62;45.56
71601;BME280;59446;52.192;4.628;2022-08-02T03:40:31;101815.19;;;22.61;45.82
71601;BME280;59446;52.192;4.628;2022-08-02T03:42:56;101810.09;;;22.58;45.84
71601;BME280;59446;52.192;4.628;2022-08-02T03:45:23;101814.53;;;22.58;45.96
71601;BME280;59446;52.192;4.628;2022-08-02T03:47:50;101811.88;;;22.58;45.93
71601;BME280;59446;52.192;4.628;2022-08-02T03:50:17;101802.31;;;22.55;45.56
71601;BME280;59446;52.192;4.628;2022-08-02T03:52:44;101797.84;;;22.56;45.78
71601;BME280;59446;52.192;4.628;2022-08-02T03:55:11;101805.06;;;22.54;45.77
71601;BME280;59446;52.192;4.628;2022-08-02T03:57:41;101798.06;;;22.53;45.91
71601;BME280;59446;52.192;4.628;2022-08-02T04:00:08;101784.88;;;22.51;46.01
71601;BME280;59446;52.192;4.628;2022-08-02T04:02:35;101788.38;;;22.52;45.93
71601;BME280;59446;52.192;4.628;2022-08-02T04:05:00;101802.63;;;22.51;46.09
71601;BME280;59446;52.192;4.628;2022-08-02T04:07:26;101796.44;;;22.50;46.19
71601;BME280;59446;52.192;4.628;2022-08-02T04:09:51;101793.91;;;22.49;46.02
71601;BME280;59446;52.192;4.628;2022-08-02T04:12:16;101792.19;;;22.48;45.90
71601;BME280;59446;52.192;4.628;2022-08-02T04:14:42;101789.44;;;22.49;45.90
71601;BME280;59446;52.192;4.628;2022-08-02T04:17:10;101783.47;;;22.46;45.96
71601;BME280;59446;52.192;4.628;2022-08-02T04:19:39;101785.28;;;22.45;46.04
71601;BME280;59446;52.192;4.628;2022-08-02T04:22:13;101786.19;;;22.44;46.07
71601;BME280;59446;52.192;4.628;2022-08-02T04:24:44;101789.75;;;22.45;45.97
71601;BME280;59446;52.192;4.628;2022-08-02T04:27:12;101799.47;;;22.44;46.08
71601;BME280;59446;52.192;4.628;2022-08-02T04:29:40;101803.06;;;22.43;46.19
71601;BME280;59446;52.192;4.628;2022-08-02T04:32:06;101799.66;;;22.41;45.99
71601;BME280;59446;52.192;4.628;2022-08-02T04:34:32;101792.56;;;22.41;46.30
71601;BME280;59446;52.192;4.628;2022-08-02T04:36:58;101786.41;;;22.41;46.52
71601;BME280;59446;52.192;4.628;2022-08-02T04:39:24;101787.34;;;22.40;46.11
71601;BME280;59446;52.192;4.628;2022-08-02T04:41:50;101790.00;;;22.40;46.14
71601;BME280;59446;52.192;4.628;2022-08-02T04:44:15;101772.38;;;22.39;46.09
71601;BME280;59446;52.192;4.628;2022-08-02T04:46:43;101772.38;;;22.39;46.11
71601;BME280;59446;52.192;4.628;2022-08-02T04:49:08;101776.81;;;22.38;46.08
71601;BME280;59446;52.192;4.628;2022-08-02T04:51:37;101780.44;;;22.37;45.98
71601;BME280;59446;52.192;4.628;2022-08-02T04:54:03;101790.94;;;22.39;46.16
71601;BME280;59446;52.192;4.628;2022-08-02T04:56:29;101780.44;;;22.37;45.55
71601;BME280;59446;52.192;4.628;2022-08-02T04:58:54;101781.28;;;22.38;46.18
71601;BME280;59446;52.192;4.628;2022-08-02T05:01:20;101786.69;;;22.36;46.04
71601;BME280;59446;52.192;4.628;2022-08-02T05:03:45;101788.50;;;22.36;46.49
71601;BME280;59446;52.192;4.628;2022-08-02T05:06:11;101792.84;;;22.37;46.15
71601;BME280;59446;52.192;4.628;2022-08-02T05:08:36;101792.75;;;22.38;46.76
71601;BME280;59446;52.192;4.628;2022-08-02T05:11:02;101792.75;;;22.38;45.92
71601;BME280;59446;52.192;4.628;2022-08-02T05:13:27;101792.75;;;22.38;45.98
71601;BME280;59446;52.192;4.628;2022-08-02T05:15:53;101794.47;;;22.39;46.29
71601;BME280;59446;52.192;4.628;2022-08-02T05:18:18;101794.34;;;22.41;45.98
71601;BME280;59446;52.192;4.628;2022-08-02T05:20:43;101795.13;;;22.43;46.09
71601;BME280;59446;52.192;4.628;2022-08-02T05:23:09;101803.28;;;22.40;46.04
71601;BME280;59446;52.192;4.628;2022-08-02T05:25:34;101791.72;;;22.41;46.23
71601;BME280;59446;52.192;4.628;2022-08-02T05:28:00;101791.72;;;22.41;45.95
71601;BME280;59446;52.192;4.628;2022-08-02T05:30:25;101776.53;;;22.43;46.26
71601;BME280;59446;52.192;4.628;2022-08-02T05:32:51;101779.19;;;22.43;45.91
71601;BME280;59446;52.192;4.628;2022-08-02T05:35:18;101776.53;;;22.43;46.07
71601;BME280;59446;52.192;4.628;2022-08-02T05:37:44;101772.19;;;22.42;45.94
71601;BME280;59446;52.192;4.628;2022-08-02T05:40:09;101778.53;;;22.39;46.07
71601;BME280;59446;52.192;4.628;2022-08-02T05:42:35;101779.38;;;22.40;46.13
71601;BME280;59446;52.192;4.628;2022-08-02T05:45:00;101760.91;;;22.38;46.15
71601;BME280;59446;52.192;4.628;2022-08-02T05:47:26;101774.06;;;22.40;46.38
71601;BME280;59446;52.192;4.628;2022-08-02T05:49:52;101768.78;;;22.40;46.10
71601;BME280;59446;52.192;4.628;2022-08-02T05:52:19;101769.72;;;22.39;46.13
71601;BME280;59446;52.192;4.628;2022-08-02T05:55:00;101786.50;;;22.39;46.17
71601;BME280;59446;52.192;4.628;2022-08-02T06:00:32;101768.50;;;22.45;46.17
71601;BME280;59446;52.192;4.628;2022-08-02T06:03:20;101771.81;;;22.48;46.44
71601;BME280;59446;52.192;4.628;2022-08-02T06:06:03;101772.56;;;22.50;46.61
71601;BME280;59446;52.192;4.628;2022-08-02T06:08:37;101764.59;;;22.50;46.41
71601;BME280;59446;52.192;4.628;2022-08-02T06:11:04;101762.50;;;22.55;46.30
71601;BME280;59446;52.192;4.628;2022-08-02T06:13:30;101755.38;;;22.56;46.34
71601;BME280;59446;52.192;4.628;2022-08-02T06:15:56;101750.81;;;22.58;46.33
71601;BME280;59446;52.192;4.628;2022-08-02T06:18:25;101762.09;;;22.61;46.44
71601;BME280;59446;52.192;4.628;2022-08-02T06:20:52;101762.94;;;22.62;46.55
71601;BME280;59446;52.192;4.628;2022-08-02T06:23:20;101761.03;;;22.64;46.83
71601;BME280;59446;52.192;4.628;2022-08-02T06:25:49;101767.09;;;22.66;46.53
71601;BME280;59446;52.192;4.628;2022-08-02T06:28:15;101754.59;;;22.68;46.37
71601;BME280;59446;52.192;4.628;2022-08-02T06:30:42;101761.53;;;22.70;46.54
71601;BME280;59446;52.192;4.628;2022-08-02T06:33:08;101760.47;;;22.73;46.66
71601;BME280;59446;52.192;4.628;2022-08-02T06:35:42;101755.91;;;22.75;46.81
71601;BME280;59446;52.192;4.628;2022-08-02T06:38:14;101753.34;;;22.73;46.95
71601;BME280;59446;52.192;4.628;2022-08-02T06:40:50;101748.78;;;22.76;46.56
71601;BME280;59446;52.192;4.628;2022-08-02T06:43:29;101754.84;;;22.78;46.41
71601;BME280;59446;52.192;4.628;2022-08-02T06:45:55;101761.41;;;22.72;46.58
71601;BME280;59446;52.192;4.628;2022-08-02T06:48:21;101766.19;;;22.67;46.80
71601;BME280;59446;52.192;4.628;2022-08-02T06:50:46;101756.56;;;22.64;46.94
71601;BME280;59446;52.192;4.628;2022-08-02T06:53:12;101753.91;;;22.64;47.04
71601;BME280;59446;52.192;4.628;2022-08-02T06:55:37;101756.56;;;22.64;47.10
71601;BME280;59446;52.192;4.628;2022-08-02T06:58:03;101753.81;;;22.66;47.10
71601;BME280;59446;52.192;4.628;2022-08-02T07:00:30;101744.84;;;22.68;47.19
71601;BME280;59446;52.192;4.628;2022-08-02T07:02:55;101743.03;;;22.69;47.29
71601;BME280;59446;52.192;4.628;2022-08-02T07:05:21;101742.94;;;22.70;47.44
71601;BME280;59446;52.192;4.628;2022-08-02T07:07:47;101743.69;;;22.72;47.18
71601;BME280;59446;52.192;4.628;2022-08-02T07:10:13;101735.50;;;22.76;47.30
71601;BME280;59446;52.192;4.628;2022-08-02T07:12:39;101736.47;;;22.74;47.50
71601;BME280;59446;52.192;4.628;2022-08-02T07:15:06;101730.09;;;22.77;47.85
71601;BME280;59446;52.192;4.628;2022-08-02T07:17:33;101736.06;;;22.81;47.91
71601;BME280;59446;52.192;4.628;2022-08-02T07:19:58;101727.50;;;22.90;47.78
71601;BME280;59446;52.192;4.628;2022-08-02T07:22:25;101726.72;;;22.88;48.38
71601;BME280;59446;52.192;4.628;2022-08-02T07:24:52;101718.56;;;22.91;48.37
71601;BME280;59446;52.192;4.628;2022-08-02T07:27:19;101719.41;;;22.91;48.79
71601;BME280;59446;52.192;4.628;2022-08-02T07:29:45;101711.56;;;22.90;48.58
71601;BME280;59446;52.192;4.628;2022-08-02T07:32:10;101712.84;;;22.97;48.70
71601;BME280;59446;52.192;4.628;2022-08-02T07:34:36;101717.78;;;22.89;50.04
71601;BME280;59446;52.192;4.628;2022-08-02T07:37:01;101718.66;;;22.89;49.69
71601;BME280;59446;52.192;4.628;2022-08-02T07:39:27;101717.31;;;22.96;50.67
71601;BME280;59446;52.192;4.628;2022-08-02T07:41:52;101720.63;;;23.00;50.31
71601;BME280;59446;52.192;4.628;2022-08-02T07:44:18;101714.53;;;22.98;50.63
71601;BME280;59446;52.192;4.628;2022-08-02T07:46:44;101721.38;;;23.02;50.32
71601;BME280;59446;52.192;4.628;2022-08-02T07:49:10;101714.69;;;23.09;49.85
71601;BME280;59446;52.192;4.628;2022-08-02T07:51:38;101715.44;;;23.11;49.98
71601;BME280;59446;52.192;4.628;2022-08-02T07:54:03;101709.00;;;23.15;50.46
71601;BME280;59446;52.192;4.628;2022-08-02T07:56:29;101706.66;;;23.23;50.21
71601;BME280;59446;52.192;4.628;2022-08-02T07:58:54;101701.34;;;23.23;49.85
71601;BME280;59446;52.192;4.628;2022-08-02T08:01:20;101704.53;;;23.28;50.14
71601;BME280;59446;52.192;4.628;2022-08-02T08:03:45;101709.84;;;23.28;50.31
71601;BME280;59446;52.192;4.628;2022-08-02T08:06:10;101702.50;;;23.32;50.11
71601;BME280;59446;52.192;4.628;2022-08-02T08:08:36;101698.03;;;23.32;50.66
71601;BME280;59446;52.192;4.628;2022-08-02T08:11:02;101699.44;;;23.38;50.78
71601;BME280;59446;52.192;4.628;2022-08-02T08:13:27;101696.56;;;23.41;51.33
71601;BME280;59446;52.192;4.628;2022-08-02T08:15:52;101696.78;;;23.38;51.68
71601;BME280;59446;52.192;4.628;2022-08-02T08:18:19;101696.78;;;23.38;51.65
71601;BME280;59446;52.192;4.628;2022-08-02T08:20:44;101696.69;;;23.40;52.15
71601;BME280;59446;52.192;4.628;2022-08-02T08:23:10;101701.78;;;23.43;52.33
71601;BME280;59446;52.192;4.628;2022-08-02T08:25:35;101698.91;;;23.46;52.20
71601;BME280;59446;52.192;4.628;2022-08-02T08:28:01;101704.75;;;23.51;51.91
71601;BME280;59446;52.192;4.628;2022-08-02T08:30:26;101709.13;;;23.52;51.82
71601;BME280;59446;52.192;4.628;2022-08-02T08:32:51;101699.88;;;23.57;51.99
71601;BME280;59446;52.192;4.628;2022-08-02T08:35:17;101700.41;;;23.62;51.92
71601;BME280;59446;52.192;4.628;2022-08-02T08:37:42;101703.69;;;23.66;52.46
71601;BME280;59446;52.192;4.628;2022-08-02T08:40:09;101711.50;;;23.69;52.42
71601;BME280;59446;52.192;4.628;2022-08-02T08:42:37;101713.50;;;23.91;51.99
71601;BME280;59446;52.192;4.628;2022-08-02T08:45:03;101704.97;;;23.99;50.97
71601;BME280;59446;52.192;4.628;2022-08-02T08:47:39;101707.00;;;23.95;51.20
71601;BME280;59446;52.192;4.628;2022-08-02T08:50:16;101702.84;;;23.91;51.11
71601;BME280;59446;52.192;4.628;2022-08-02T08:53:03;101707.44;;;23.89;52.81
71601;BME280;59446;52.192;4.628;2022-08-02T08:55:30;101703.41;;;23.83;52.50
71601;BME280;59446;52.192;4.628;2022-08-02T08:57:58;101702.44;;;23.84;52.45
71601;BME280;59446;52.192;4.628;2022-08-02T09:00:24;101698.19;;;23.82;52.56
71601;BME280;59446;52.192;4.628;2022-08-02T09:02:50;101700.97;;;23.80;52.80
71601;BME280;59446;52.192;4.628;2022-08-02T09:05:16;101704.38;;;23.82;52.49
71601;BME280;59446;52.192;4.628;2022-08-02T09:07:48;101711.38;;;23.83;53.00
71601;BME280;59446;52.192;4.628;2022-08-02T09:10:37;101710.94;;;23.89;52.71
71601;BME280;59446;52.192;4.628;2022-08-02T09:13:21;101714.47;;;23.90;52.96
71601;BME280;59446;52.192;4.628;2022-08-02T09:16:07;101720.41;;;23.93;53.49
71601;BME280;59446;52.192;4.628;2022-08-02T09:18:37;101715.59;;;23.99;52.43
71601;BME280;59446;52.192;4.628;2022-08-02T09:21:06;101713.91;;;23.98;52.62
71601;BME280;59446;52.192;4.628;2022-08-02T09:23:52;101708.47;;;23.99;52.73
71601;BME280;59446;52.192;4.628;2022-08-02T09:26:21;101707.94;;;24.07;52.24
71601;BME280;59446;52.192;4.628;2022-08-02T09:28:50;101714.75;;;24.11;52.14
71601;BME280;59446;52.192;4.628;2022-08-02T09:31:17;101718.88;;;24.15;52.27
71601;BME280;59446;52.192;4.628;2022-08-02T09:33:44;101713.56;;;24.15;52.42
71601;BME280;59446;52.192;4.628;2022-08-02T09:36:14;101722.06;;;24.20;52.61
71601;BME280;59446;52.192;4.628;2022-08-02T09:38:52;101711.00;;;24.26;51.77
71601;BME280;59446;52.192;4.628;2022-08-02T09:41:29;101718.53;;;24.32;52.18
71601;BME280;59446;52.192;4.628;2022-08-02T09:43:56;101713.44;;;24.29;51.49
71601;BME280;59446;52.192;4.628;2022-08-02T09:46:27;101717.06;;;24.28;51.52
71601;BME280;59446;52.192;4.628;2022-08-02T09:48:55;101724.06;;;24.29;51.95
71601;BME280;59446;52.192;4.628;2022-08-02T09:51:48;101729.19;;;24.19;51.80
71601;BME280;59446;52.192;4.628;2022-08-02T09:54:24;101726.00;;;24.14;52.57
71601;BME280;59446;52.192;4.628;2022-08-02T09:56:54;101727.38;;;24.20;52.06
71601;BME280;59446;52.192;4.628;2022-08-02T09:59:22;101733.03;;;24.28;52.00
71601;BME280;59446;52.192;4.628;2022-08-02T10:01:52;101728.75;;;24.38;51.95
71601;BME280;59446;52.192;4.628;2022-08-02T10:04:23;101730.22;;;24.42;51.09
71601;BME280;59446;52.192;4.628;2022-08-02T10:06:50;101731.19;;;24.41;51.41
71601;BME280;59446;52.192;4.628;2022-08-02T10:09:16;101738.84;;;24.46;51.48
71601;BME280;59446;52.192;4.628;2022-08-02T10:11:42;101733.13;;;24.39;51.37
71601;BME280;59446;52.192;4.628;2022-08-02T10:14:09;101734.69;;;24.42;51.28
71601;BME280;59446;52.192;4.628;2022-08-02T10:16:39;101724.91;;;24.42;51.35
71601;BME280;59446;52.192;4.628;2022-08-02T10:19:05;101733.13;;;24.39;51.02
71601;BME280;59446;52.192;4.628;2022-08-02T10:21:55;101727.69;;;24.41;50.92
71601;BME280;59446;52.192;4.628;2022-08-02T10:24:25;101724.56;;;24.47;50.73
71601;BME280;59446;52.192;4.628;2022-08-02T10:26:51;101724.03;;;24.54;50.95
71601;BME280;59446;52.192;4.628;2022-08-02T10:29:23;101716.75;;;24.57;50.84
71601;BME280;59446;52.192;4.628;2022-08-02T10:32:04;101718.75;;;24.66;50.62
71601;BME280;59446;52.192;4.628;2022-08-02T10:36:41;101709.72;;;24.79;50.09
71601;BME280;59446;52.192;4.628;2022-08-02T10:39:07;101711.31;;;24.82;49.68
71601;BME280;59446;52.192;4.628;2022-08-02T10:41:47;101705.00;;;24.72;50.32
71601;BME280;59446;52.192;4.628;2022-08-02T10:46:50;101696.53;;;24.78;49.97
71601;BME280;59446;52.192;4.628;2022-08-02T10:49:17;101707.19;;;24.78;50.30
71601;BME280;59446;52.192;4.628;2022-08-02T10:51:59;101709.50;;;24.82;49.50
71601;BME280;59446;52.192;4.628;2022-08-02T10:54:35;101705.28;;;24.91;49.54
71601;BME280;59446;52.192;4.628;2022-08-02T10:57:01;101705.28;;;24.91;49.29
71601;BME280;59446;52.192;4.628;2022-08-02T11:01:55;101705.09;;;24.94;49.70
71601;BME280;59446;52.192;4.628;2022-08-02T11:09:42;101690.34;;;25.01;48.96
71601;BME280;59446;52.192;4.628;2022-08-02T11:12:13;101695.22;;;25.07;49.09
71601;BME280;59446;52.192;4.628;2022-08-02T11:15:02;101689.63;;;25.10;48.70
71601;BME280;59446;52.192;4.628;2022-08-02T11:17:51;101687.69;;;25.01;49.69
71601;BME280;59446;52.192;4.628;2022-08-02T11:20:17;101701.00;;;25.01;49.80
71601;BME280;59446;52.192;4.628;2022-08-02T11:22:44;101699.69;;;25.07;49.40
71601;BME280;59446;52.192;4.628;2022-08-02T11:27:52;101698.84;;;25.06;49.70
71601;BME280;59446;52.192;4.628;2022-08-02T11:30:18;101697.75;;;25.09;49.46
71601;BME280;59446;52.192;4.628;2022-08-02T11:32:44;101701.03;;;25.12;49.53
71601;BME280;59446;52.192;4.628;2022-08-02T11:35:09;101700.22;;;25.23;49.62
71601;BME280;59446;52.192;4.628;2022-08-02T11:37:37;101699.50;;;25.32;49.42
71601;BME280;59446;52.192;4.628;2022-08-02T11:40:06;101703.38;;;25.28;49.24
71601;BME280;59446;52.192;4.628;2022-08-02T11:42:34;101705.31;;;25.26;49.07
71601;BME280;59446;52.192;4.628;2022-08-02T11:44:59;101700.97;;;25.25;49.16
71601;BME280;59446;52.192;4.628;2022-08-02T11:47:25;101702.03;;;25.23;49.74
71601;BME280;59446;52.192;4.628;2022-08-02T11:49:51;101698.53;;;25.22;49.29
71601;BME280;59446;52.192;4.628;2022-08-02T11:52:16;101703.75;;;25.24;49.13
71601;BME280;59446;52.192;4.628;2022-08-02T11:54:42;101698.16;;;25.27;48.92
71601;BME280;59446;52.192;4.628;2022-08-02T11:59:36;101695.75;;;25.24;48.48
71601;BME280;59446;52.192;4.628;2022-08-02T12:02:04;101696.59;;;25.24;48.82
71601;BME280;59446;52.192;4.628;2022-08-02T12:04:30;101708.72;;;25.28;48.38
71601;BME280;59446;52.192;4.628;2022-08-02T12:06:57;101704.59;;;25.24;48.45
71601;BME280;59446;52.192;4.628;2022-08-02T12:09:25;101686.53;;;25.28;48.11
71601;BME280;59446;52.192;4.628;2022-08-02T12:11:50;101684.97;;;25.25;48.24
71601;BME280;59446;52.192;4.628;2022-08-02T12:14:16;101684.47;;;25.20;48.44
71601;BME280;59446;52.192;4.628;2022-08-02T12:16:42;101700.47;;;25.20;48.63
71601;BME280;59446;52.192;4.628;2022-08-02T12:19:26;101697.56;;;25.23;48.19
71601;BME280;59446;52.192;4.628;2022-08-02T12:22:14;101686.66;;;25.26;47.88
71601;BME280;59446;52.192;4.628;2022-08-02T12:24:46;101698.16;;;25.27;47.60
71601;BME280;59446;52.192;4.628;2022-08-02T12:27:29;101701.22;;;25.33;47.23
71601;BME280;59446;52.192;4.628;2022-08-02T12:30:09;101695.31;;;25.41;46.85
71601;BME280;59446;52.192;4.628;2022-08-02T12:32:35;101691.91;;;25.39;46.56
71601;BME280;59446;52.192;4.628;2022-08-02T12:35:13;101695.19;;;25.42;45.74
71601;BME280;59446;52.192;4.628;2022-08-02T12:37:41;101702.78;;;25.36;45.76
71601;BME280;59446;52.192;4.628;2022-08-02T12:42:49;101705.44;;;25.36;45.90
71601;BME280;59446;52.192;4.628;2022-08-02T12:45:15;101703.75;;;25.35;46.05
71601;BME280;59446;52.192;4.628;2022-08-02T12:47:45;101700.13;;;25.36;45.58
71601;BME280;59446;52.192;4.628;2022-08-02T12:50:24;101698.81;;;25.41;45.71
71601;BME280;59446;52.192;4.628;2022-08-02T12:52:50;101694.69;;;25.49;45.81
71601;BME280;59446;52.192;4.628;2022-08-02T12:55:26;101688.63;;;25.46;45.73
71601;BME280;59446;52.192;4.628;2022-08-02T12:57:58;101682.44;;;25.57;45.40
71601;BME280;59446;52.192;4.628;2022-08-02T13:00:27;101691.91;;;25.50;45.91
71601;BME280;59446;52.192;4.628;2022-08-02T13:02:52;101675.16;;;25.59;45.42
71601;BME280;59446;52.192;4.628;2022-08-02T13:05:18;101671.94;;;25.67;45.39
71601;BME280;59446;52.192;4.628;2022-08-02T13:07:44;101684.66;;;25.74;46.12
71601;BME280;59446;52.192;4.628;2022-08-02T13:10:09;101668.88;;;25.83;46.29
71601;BME280;59446;52.192;4.628;2022-08-02T13:12:35;101674.72;;;25.76;46.14
71601;BME280;59446;52.192;4.628;2022-08-02T13:15:02;101671.44;;;25.73;46.26
71601;BME280;59446;52.192;4.628;2022-08-02T13:17:27;101668.19;;;25.69;47.02
71601;BME280;59446;52.192;4.628;2022-08-02T13:19:53;101666.72;;;25.76;46.59
71601;BME280;59446;52.192;4.628;2022-08-02T13:22:18;101658.25;;;25.71;47.00
71601;BME280;59446;52.192;4.628;2022-08-02T13:24:44;101662.84;;;25.81;47.15
71601;BME280;59446;52.192;4.628;2022-08-02T13:27:09;101667.91;;;25.84;47.59
71601;BME280;59446;52.192;4.628;2022-08-02T13:29:36;101662.59;;;25.84;47.35
71601;BME280;59446;52.192;4.628;2022-08-02T13:32:01;101661.50;;;25.97;47.31
71601;BME280;59446;52.192;4.628;2022-08-02T13:34:27;101666.22;;;25.94;47.71